Strona główna
METAR-TAF:

METAR-TAF

Lotnisko :

Port lotniczy Praia

Praia, Republika Zielonego Przylądka

Szerokość geograficzna: 14-55-27N, Długość geograficzna: 23-29-38W, wysokość: 70 m

Aktualna obserwacja pogody

Raport powstał 11 minut temu, godzina 23:00 UTC
Wiatr 22 kt od północno-północny wschód
Temperatura 21°C
Wilgotność 78%
Ciśnienie 1017 hPa
Widzialność 10 km lub więcej
Mało chmury na wysokości 1600 ft

METAR: GVNP 272300Z 03022KT 9999 FEW016 21/17 Q1017 NOSIG

czas: 22:11 (23:11 UTC)

Prognoza

Raport powstał 6 godziny i 11 minut temu, godzina 17:00 UTC
Prognoza ważna od 27 godzina 18 UTC do 28 godzina 24 UTC
Wiatr 18 kt od północno-północny wschód
Widzialność 10 km lub więcej
Mało chmury na wysokości 1600 ft
Przejściowo
od 27 godzina 23 UTC do 28 godzina 07 UTC
Wiatr 8 kt od północno-północny wschód

TAF: GVNP 271700Z 2718/2824 02018KT 9999 FEW016 TEMPO 2723/2807 02008KT

Obserwacja i prognoza pogody dla ponad 4000 lotnisk (raport METAR i TAF).

Dostępne stacje oznaczono żółtymi i czerwonymi punktami na mapie.

Najedź kursorem aby zobaczyć nazwę stacji.

Kliknij aby zobaczyć obserwacje i prognozy pogody.

Aby zmienić mapę: kliknij na zielony przycisk z czarnym krzyżykiem, aby powiększyć; na zielony przycisk z myślnikiem, aby pomniejszyć; na zielone strzałki, aby przejść do map sąsiednich.


METAR-TAF: